Time;durP1;ratioP1;P1;durP2;ratioP2;P2;SDS_P1;SDS_P2;PMS_P1;PMS_P2;Temp;Humidity;BMP_temperature;BMP_pressure;BME280_temperature;BME280_humidity;BME280_pressure;Samples;Min_cycle;Max_cycle;Signal;HPM_P1;HPM_P2
2022/01/11 00:00:31;;;;;;;24.40;11.10;;;;;4.20;97484.20;;;;111877;1241;41242;-71
2022/01/11 00:03:15;;;;;;;23.50;11.80;;;;;4.20;97487.20;;;;111806;1241;41251;-77
2022/01/11 00:08:29;;;;;;;24.00;11.20;;;;;4.22;97488.00;;;;111884;1241;41186;-60
2022/01/11 00:11:04;;;;;;;26.90;13.10;;;;;4.26;97496.60;;;;111849;1241;41167;-81
2022/01/11 00:13:40;;;;;;;27.50;13.70;;;;;4.20;97496.60;;;;111856;1241;41120;-81
2022/01/11 00:16:13;;;;;;;26.20;12.60;;;;;4.20;97500.60;;;;111898;1242;42256;-74
2022/01/11 00:18:42;;;;;;;27.00;12.30;;;;;4.20;97506.20;;;;111872;1243;41149;-77
2022/01/11 00:21:12;;;;;;;25.90;12.60;;;;;4.20;97509.20;;;;111553;1244;41525;-81
2022/01/11 00:26:11;;;;;;;26.90;13.10;;;;;4.20;97511.00;;;;111500;1244;41584;-74
2022/01/11 00:28:40;;;;;;;24.70;11.90;;;;;4.20;97512.60;;;;111698;1243;41630;-75
2022/01/11 00:31:16;;;;;;;28.60;13.40;;;;;4.20;97513.80;;;;111656;1241;43176;-60
2022/01/11 00:33:47;;;;;;;28.50;12.90;;;;;4.20;97514.80;;;;111823;1241;41123;-79
2022/01/11 00:36:16;;;;;;;29.00;13.20;;;;;4.20;97515.40;;;;111502;1243;42070;-81
2022/01/11 00:38:46;;;;;;;26.50;13.00;;;;;4.20;97514.60;;;;111569;1241;41370;-76
2022/01/11 00:41:15;;;;;;;27.00;13.50;;;;;4.20;97518.60;;;;111867;1242;41950;-80
2022/01/11 00:43:45;;;;;;;25.60;13.00;;;;;4.20;97524.20;;;;111863;1243;41126;-73
2022/01/11 00:46:15;;;;;;;24.00;12.60;;;;;4.22;97517.80;;;;111837;1241;41613;-81
2022/01/11 00:48:45;;;;;;;24.30;11.70;;;;;4.24;97520.60;;;;111824;1241;41136;-81
2022/01/11 00:51:15;;;;;;;22.90;11.40;;;;;4.20;97516.80;;;;111835;1242;42031;-79
2022/01/11 00:53:45;;;;;;;25.40;11.80;;;;;4.20;97522.20;;;;111862;1241;41167;-74
2022/01/11 00:56:14;;;;;;;31.30;16.20;;;;;4.24;97527.60;;;;111811;1242;41148;-81
2022/01/11 00:58:43;;;;;;;31.20;15.60;;;;;4.22;97528.00;;;;111709;1242;41719;-80
2022/01/11 01:01:14;;;;;;;32.70;15.70;;;;;4.20;97528.60;;;;111677;1244;41143;-77
2022/01/11 01:03:44;;;;;;;33.00;16.30;;;;;4.20;97524.00;;;;111692;1241;41254;-75
2022/01/11 01:06:14;;;;;;;35.80;17.10;;;;;4.20;97525.60;;;;111799;1242;41822;-71
2022/01/11 01:08:44;;;;;;;33.00;15.20;;;;;4.20;97521.60;;;;111546;1244;41146;-81
2022/01/11 01:11:14;;;;;;;30.30;15.00;;;;;4.20;97527.80;;;;111766;1241;42166;-80
2022/01/11 01:13:46;;;;;;;28.00;13.40;;;;;4.20;97527.40;;;;111711;1241;41177;-81
2022/01/11 01:16:16;;;;;;;25.30;12.60;;;;;4.20;97528.20;;;;111749;1241;41260;-69
2022/01/11 01:18:53;;;;;;;24.50;12.40;;;;;4.20;97524.60;;;;111691;1242;42507;-81
2022/01/11 01:21:24;;;;;;;25.00;12.00;;;;;4.20;97526.00;;;;111822;1241;41662;-79
2022/01/11 01:23:53;;;;;;;24.10;11.80;;;;;4.20;97524.20;;;;111725;1241;41853;-80
2022/01/11 01:26:23;;;;;;;27.10;14.00;;;;;4.20;97528.20;;;;111438;1244;41249;-79
2022/01/11 01:28:53;;;;;;;30.40;14.20;;;;;4.20;97525.20;;;;111736;1241;42286;-79
2022/01/11 01:31:24;;;;;;;30.20;15.80;;;;;4.20;97522.80;;;;111571;1243;41598;-81
2022/01/11 01:33:54;;;;;;;35.50;16.80;;;;;4.20;97523.40;;;;111833;1241;41195;-79
2022/01/11 01:36:25;;;;;;;30.30;14.40;;;;;4.20;97522.80;;;;111729;1241;41661;-81
2022/01/11 01:38:55;;;;;;;29.30;14.40;;;;;4.20;97523.60;;;;111762;1241;41149;-81
2022/01/11 01:41:25;;;;;;;30.00;14.80;;;;;4.20;97526.60;;;;111871;1241;41125;-81
2022/01/11 01:43:56;;;;;;;;;;;;;4.20;97532.20;;;;111594;1242;41138;-80
2022/01/11 01:46:26;;;;;;;27.70;13.60;;;;;4.20;97534.00;;;;111880;1241;41126;-79
2022/01/11 01:48:59;;;;;;;29.10;14.20;;;;;4.20;97533.80;;;;111819;1241;42358;-80
2022/01/11 01:51:30;;;;;;;29.60;14.20;;;;;4.20;97535.40;;;;111673;1241;42546;-82
2022/01/11 01:54:00;;;;;;;29.90;15.00;;;;;4.16;97527.20;;;;111763;1241;41281;-81
2022/01/11 01:56:30;;;;;;;28.90;14.00;;;;;4.18;97535.40;;;;111726;1244;41260;-81
2022/01/11 01:58:59;;;;;;;28.70;13.90;;;;;4.16;97534.60;;;;111463;1244;41153;-80
2022/01/11 02:01:32;;;;;;;27.70;13.80;;;;;4.20;97531.80;;;;111472;1244;41143;-82
2022/01/11 02:04:02;;;;;;;31.40;15.10;;;;;4.20;97534.40;;;;111834;1241;41253;-67
2022/01/11 02:06:32;;;;;;;29.80;15.10;;;;;4.20;97537.20;;;;111606;1244;41908;-65
2022/01/11 02:09:02;;;;;;;30.60;14.90;;;;;4.20;97541.20;;;;111852;1243;41363;-65
2022/01/11 02:11:33;;;;;;;27.70;14.10;;;;;4.20;97535.60;;;;111498;1244;42516;-79
2022/01/11 02:14:03;;;;;;;29.20;14.60;;;;;4.10;97538.80;;;;111765;1242;41144;-81
2022/01/11 02:16:33;;;;;;;28.50;13.40;;;;;4.10;97531.40;;;;111738;1242;41631;-73
2022/01/11 02:19:03;;;;;;;28.60;13.40;;;;;4.10;97537.80;;;;111790;1244;41486;-72
2022/01/11 02:21:33;;;;;;;29.00;14.10;;;;;4.10;97534.80;;;;111569;1244;41181;-72
2022/01/11 02:24:03;;;;;;;33.90;16.80;;;;;4.10;97536.60;;;;111865;1241;42354;-73
2022/01/11 02:26:35;;;;;;;35.40;17.00;;;;;4.00;97538.00;;;;111815;1244;42765;-75
2022/01/11 02:29:05;;;;;;;30.40;15.00;;;;;3.98;97538.00;;;;111594;1244;41338;-67
2022/01/11 02:31:38;;;;;;;32.10;15.40;;;;;3.90;97549.80;;;;111638;1241;41146;-69
2022/01/11 02:34:09;;;;;;;29.40;15.80;;;;;3.90;97543.40;;;;111657;1242;41186;-74
2022/01/11 02:36:48;;;;;;;31.90;15.50;;;;;3.80;97542.00;;;;111787;1241;41718;-77
2022/01/11 02:39:34;;;;;;;30.60;14.30;;;;;3.80;97547.80;;;;111480;1244;41143;-80
2022/01/11 02:42:14;;;;;;;30.30;13.70;;;;;3.80;97549.00;;;;111522;1244;41255;-81
2022/01/11 02:44:43;;;;;;;27.30;13.70;;;;;3.80;97550.40;;;;111493;1244;41200;-80
2022/01/11 02:47:19;;;;;;;26.40;12.80;;;;;3.82;97554.80;;;;111662;1243;41431;-77
2022/01/11 02:49:51;;;;;;;30.10;14.30;;;;;3.90;97557.00;;;;111842;1241;41145;-71
2022/01/11 02:52:24;;;;;;;28.30;14.20;;;;;3.90;97557.00;;;;111830;1243;41249;-65
2022/01/11 02:55:01;;;;;;;31.80;14.30;;;;;3.90;97560.80;;;;111842;1241;41759;-74
2022/01/11 02:57:30;;;;;;;32.20;14.30;;;;;3.90;97560.60;;;;111731;1243;41120;-75
2022/01/11 03:00:21;;;;;;;28.40;13.90;;;;;3.90;97566.60;;;;111684;1243;41153;-76
2022/01/11 03:02:52;;;;;;;29.60;14.10;;;;;3.90;97570.80;;;;111580;1243;41167;-73
2022/01/11 03:05:25;;;;;;;30.90;14.10;;;;;3.90;97570.00;;;;111863;1241;41226;-82
2022/01/11 03:07:57;;;;;;;27.70;13.60;;;;;3.90;97571.20;;;;111549;1244;41722;-70
2022/01/11 03:10:32;;;;;;;28.10;13.80;;;;;3.92;97572.40;;;;111828;1242;41310;-83
2022/01/11 03:13:06;;;;;;;31.00;15.60;;;;;3.92;97574.40;;;;111446;1244;41671;-65
2022/01/11 03:15:36;;;;;;;35.80;17.70;;;;;3.90;97574.00;;;;111775;1244;41937;-78
2022/01/11 03:18:10;;;;;;;32.80;16.40;;;;;3.92;97577.40;;;;111805;1243;41257;-79
2022/01/11 03:20:46;;;;;;;30.20;15.00;;;;;3.90;97584.20;;;;111725;1244;41701;-61
2022/01/11 03:23:18;;;;;;;28.70;14.00;;;;;3.90;97581.00;;;;111519;1244;41966;-73
2022/01/11 03:25:51;;;;;;;31.40;15.60;;;;;3.90;97582.00;;;;111508;1244;41305;-61
2022/01/11 03:28:22;;;;;;;30.30;14.40;;;;;3.90;97583.00;;;;111561;1241;41704;-80
2022/01/11 03:30:53;;;;;;;25.60;13.10;;;;;3.90;97583.80;;;;111688;1244;41157;-76
2022/01/11 03:33:23;;;;;;;26.90;13.00;;;;;3.90;97593.20;;;;111740;1244;41263;-70
2022/01/11 03:35:54;;;;;;;27.40;12.90;;;;;3.96;97593.60;;;;111850;1241;41963;-77
2022/01/11 03:38:24;;;;;;;26.10;13.00;;;;;3.98;97588.00;;;;111289;1244;41625;-75
2022/01/11 03:40:59;;;;;;;29.00;13.20;;;;;4.00;97591.80;;;;111709;1243;41156;-77
2022/01/11 03:43:29;;;;;;;25.10;12.60;;;;;4.00;97594.40;;;;111812;1242;41265;-81
2022/01/11 03:45:59;;;;;;;30.30;13.20;;;;;4.00;97596.40;;;;111844;1241;41246;-68
2022/01/11 03:48:30;;;;;;;26.80;13.80;;;;;4.00;97599.00;;;;111870;1242;41138;-78
2022/01/11 03:51:00;;;;;;;31.00;15.70;;;;;4.00;97598.80;;;;111555;1241;41590;-81
2022/01/11 03:53:53;;;;;;;27.10;13.30;;;;;3.90;97606.00;;;;111743;1241;41632;-73
2022/01/11 03:56:26;;;;;;;28.50;14.70;;;;;3.90;97609.40;;;;111723;1241;42350;-81
2022/01/11 03:59:06;;;;;;;29.80;14.30;;;;;3.86;97614.40;;;;111508;1242;41256;-76
2022/01/11 04:01:37;;;;;;;28.30;13.20;;;;;3.80;97617.40;;;;111504;1244;41147;-83
2022/01/11 04:04:09;;;;;;;27.10;13.70;;;;;3.80;97623.40;;;;111898;1242;41170;-83
2022/01/11 04:06:38;;;;;;;25.10;12.90;;;;;3.80;97621.20;;;;111501;1244;41254;-80
2022/01/11 04:09:09;;;;;;;31.90;14.20;;;;;3.80;97624.40;;;;111692;1241;41733;-64
2022/01/11 04:11:39;;;;;;;28.30;13.90;;;;;3.80;97626.00;;;;111552;1243;41139;-66
2022/01/11 04:14:09;;;;;;;28.10;13.30;;;;;3.80;97622.80;;;;111524;1244;41363;-69
2022/01/11 04:16:39;;;;;;;28.60;13.10;;;;;3.80;97622.80;;;;111499;1244;41156;-65
2022/01/11 04:19:10;;;;;;;26.10;13.00;;;;;3.70;97628.00;;;;111767;1244;41174;-70
2022/01/11 04:21:41;;;;;;;30.50;14.60;;;;;3.70;97623.40;;;;111813;1241;41324;-71
2022/01/11 04:24:13;;;;;;;31.20;14.90;;;;;3.70;97630.80;;;;111615;1244;41376;-80
2022/01/11 04:26:47;;;;;;;25.90;13.80;;;;;3.70;97637.60;;;;111822;1241;41248;-76
2022/01/11 04:29:17;;;;;;;24.50;12.50;;;;;3.60;97633.60;;;;111729;1242;42404;-63
2022/01/11 04:31:47;;;;;;;24.90;12.40;;;;;3.60;97641.80;;;;111481;1244;41252;-74
2022/01/11 04:34:20;;;;;;;23.90;11.50;;;;;3.60;97641.20;;;;111780;1243;41258;-78
2022/01/11 04:36:53;;;;;;;24.10;11.20;;;;;3.60;97643.60;;;;111491;1244;41261;-81
2022/01/11 04:39:25;;;;;;;22.20;10.80;;;;;3.62;97647.00;;;;111398;1241;42413;-67
2022/01/11 04:41:54;;;;;;;28.50;12.90;;;;;3.60;97649.40;;;;111536;1244;43209;-72
2022/01/11 04:44:24;;;;;;;24.90;12.10;;;;;3.68;97650.40;;;;111528;1244;41163;-62
2022/01/11 04:46:54;;;;;;;24.20;11.80;;;;;3.70;97649.60;;;;111499;1241;41307;-69
2022/01/11 04:49:23;;;;;;;24.10;12.00;;;;;3.70;97655.20;;;;111685;1244;41344;-73
2022/01/11 04:51:54;;;;;;;24.20;11.10;;;;;3.70;97653.20;;;;111750;1242;42288;-67
2022/01/11 04:54:24;;;;;;;22.70;11.50;;;;;3.70;97658.20;;;;111693;1244;41145;-70
2022/01/11 04:56:54;;;;;;;23.00;11.20;;;;;3.70;97654.60;;;;111496;1244;41131;-78
2022/01/11 04:59:24;;;;;;;23.10;11.70;;;;;3.70;97657.40;;;;111506;1244;41933;-77
2022/01/11 05:01:54;;;;;;;23.50;11.40;;;;;3.80;97658.20;;;;111718;1244;41241;-78
2022/01/11 05:04:24;;;;;;;23.90;11.80;;;;;3.80;97661.40;;;;111672;1243;42050;-69
2022/01/11 05:06:55;;;;;;;24.40;11.90;;;;;3.80;97661.80;;;;111654;1244;41130;-79
2022/01/11 05:09:25;;;;;;;23.10;11.50;;;;;3.80;97666.80;;;;111584;1244;41788;-68
2022/01/11 05:11:54;;;;;;;22.30;11.20;;;;;3.80;97673.00;;;;111606;1244;41168;-65
2022/01/11 05:14:24;;;;;;;26.10;11.90;;;;;3.80;97674.20;;;;111707;1244;41446;-75
2022/01/11 05:16:54;;;;;;;26.60;12.00;;;;;3.80;97677.60;;;;111705;1244;42350;-79
2022/01/11 05:19:24;;;;;;;24.30;12.40;;;;;3.80;97679.00;;;;111644;1242;41365;-76
2022/01/11 05:21:54;;;;;;;22.90;11.70;;;;;3.82;97682.40;;;;111763;1243;41254;-75
2022/01/11 05:24:23;;;;;;;24.10;12.20;;;;;3.80;97682.00;;;;111583;1243;41149;-71
2022/01/11 05:26:54;;;;;;;;;;;;;3.86;97681.00;;;;111596;1244;41684;-78
2022/01/11 05:29:24;;;;;;;21.80;11.10;;;;;3.80;97689.40;;;;111663;1241;41359;-76
2022/01/11 05:31:53;;;;;;;24.70;11.20;;;;;3.80;97689.40;;;;111821;1243;41203;-79
2022/01/11 05:34:23;;;;;;;20.60;10.70;;;;;3.80;97696.80;;;;111759;1243;41471;-72
2022/01/11 05:36:54;;;;;;;21.90;11.40;;;;;3.80;97696.80;;;;111738;1244;41140;-77
2022/01/11 05:39:24;;;;;;;24.10;12.00;;;;;3.80;97698.20;;;;111671;1244;41537;-78
2022/01/11 05:41:53;;;;;;;24.40;11.60;;;;;3.86;97702.20;;;;111501;1241;41157;-80
2022/01/11 05:44:22;;;;;;;23.00;11.20;;;;;3.90;97706.00;;;;111775;1243;41151;-79
2022/01/11 05:46:52;;;;;;;22.30;11.10;;;;;3.90;97713.40;;;;111801;1241;41128;-79
2022/01/11 05:49:22;;;;;;;22.50;11.10;;;;;3.90;97720.20;;;;111837;1244;41598;-75
2022/01/11 05:51:51;;;;;;;23.80;11.70;;;;;3.90;97718.20;;;;111790;1241;41137;-66
2022/01/11 05:54:21;;;;;;;27.00;12.40;;;;;3.90;97719.20;;;;111807;1244;41141;-77
2022/01/11 05:56:50;;;;;;;22.10;11.30;;;;;3.90;97726.20;;;;111420;1244;41171;-71
2022/01/11 05:59:19;;;;;;;21.90;10.90;;;;;3.90;97728.20;;;;111359;1244;40731;-77
2022/01/11 06:01:49;;;;;;;23.90;11.80;;;;;3.90;97727.60;;;;111472;1244;41141;-76
2022/01/11 06:04:18;;;;;;;25.50;11.70;;;;;3.90;97735.20;;;;111435;1244;40790;-80
2022/01/11 06:06:48;;;;;;;22.60;11.00;;;;;3.90;97741.20;;;;111500;1244;41614;-80
2022/01/11 06:09:18;;;;;;;23.00;11.00;;;;;3.90;97745.40;;;;111519;1244;41152;-80
2022/01/11 06:11:47;;;;;;;22.40;10.80;;;;;3.90;97747.40;;;;111298;1246;41268;-86
2022/01/11 06:14:20;;;;;;;20.70;9.60;;;;;3.94;97751.60;;;;111445;1244;41137;-62
2022/01/11 06:16:49;;;;;;;21.30;11.20;;;;;3.94;97759.20;;;;111803;1241;41134;-64
2022/01/11 06:19:19;;;;;;;23.20;10.80;;;;;4.00;97762.20;;;;111355;1244;41531;-78
2022/01/11 06:22:05;;;;;;;23.50;11.40;;;;;4.00;97769.20;;;;111795;1241;41151;-69
2022/01/11 06:24:35;;;;;;;30.80;14.80;;;;;4.00;97770.40;;;;111537;1244;41995;-64
2022/01/11 06:27:04;;;;;;;31.60;16.20;;;;;3.98;97772.60;;;;111491;1244;41151;-76
2022/01/11 06:29:34;;;;;;;35.60;17.10;;;;;3.92;97779.40;;;;111544;1244;41795;-75
2022/01/11 06:32:04;;;;;;;34.50;17.60;;;;;3.90;97781.60;;;;111758;1243;41135;-83
2022/01/11 06:34:33;;;;;;;36.00;17.30;;;;;3.90;97782.40;;;;111260;1244;41150;-79
2022/01/11 06:37:03;;;;;;;35.20;17.20;;;;;3.90;97790.20;;;;111756;1244;41633;-69
2022/01/11 06:39:36;;;;;;;42.90;19.60;;;;;3.86;97786.60;;;;111716;1244;41118;-77
2022/01/11 06:42:07;;;;;;;41.00;20.60;;;;;3.80;97788.60;;;;111553;1244;42218;-75
2022/01/11 06:44:38;;;;;;;43.50;22.00;;;;;3.80;97788.40;;;;111516;1244;42559;-82
2022/01/11 06:47:10;;;;;;;45.00;23.50;;;;;3.80;97788.00;;;;111783;1244;41151;-72
2022/01/11 06:49:40;;;;;;;40.00;21.30;;;;;3.80;97791.80;;;;111493;1244;41252;-61
2022/01/11 06:52:10;;;;;;;40.80;21.50;;;;;3.80;97797.80;;;;111393;1244;41316;-65
2022/01/11 06:54:43;;;;;;;40.10;21.80;;;;;3.80;97796.60;;;;111865;1243;41250;-60
2022/01/11 06:57:12;;;;;;;38.40;19.60;;;;;3.80;97803.20;;;;111805;1243;41253;-75
2022/01/11 06:59:42;;;;;;;36.40;18.50;;;;;3.76;97803.40;;;;111567;1244;41172;-67
2022/01/11 07:02:12;;;;;;;38.50;19.50;;;;;3.76;97807.00;;;;111564;1244;41142;-73
2022/01/11 07:04:58;;;;;;;34.80;18.70;;;;;3.80;97815.40;;;;111811;1242;41839;-67
2022/01/11 07:07:27;;;;;;;31.40;16.10;;;;;3.80;97814.40;;;;111829;1243;41611;-75
2022/01/11 07:09:57;;;;;;;31.60;16.50;;;;;3.80;97814.40;;;;111556;1244;42826;-80
2022/01/11 07:12:27;;;;;;;39.90;19.20;;;;;3.80;97818.60;;;;111867;1241;41137;-72
2022/01/11 07:14:56;;;;;;;38.10;20.00;;;;;3.88;97822.20;;;;111863;1241;41587;-71
2022/01/11 07:17:26;;;;;;;32.60;16.50;;;;;3.80;97821.40;;;;111861;1241;41876;-78
2022/01/11 07:19:56;;;;;;;31.70;15.80;;;;;3.82;97827.20;;;;111849;1242;41175;-79
2022/01/11 07:22:25;;;;;;;29.80;15.40;;;;;3.90;97835.00;;;;111852;1241;41126;-73
2022/01/11 07:24:56;;;;;;;32.20;16.30;;;;;3.90;97837.40;;;;111522;1244;41134;-73
2022/01/11 07:27:25;;;;;;;28.80;14.50;;;;;3.92;97840.20;;;;111600;1242;41641;-76
2022/01/11 07:29:55;;;;;;;30.80;15.60;;;;;4.00;97848.40;;;;111776;1241;41369;-75
2022/01/11 07:32:26;;;;;;;27.70;14.50;;;;;4.00;97845.40;;;;111736;1242;41469;-81
2022/01/11 07:34:55;;;;;;;29.00;14.20;;;;;4.00;97846.20;;;;111804;1244;41147;-60
2022/01/11 07:37:25;;;;;;;27.40;14.30;;;;;4.08;97843.80;;;;111655;1244;41141;-70
2022/01/11 07:39:55;;;;;;;27.80;14.50;;;;;4.10;97847.60;;;;111656;1244;42642;-79
2022/01/11 07:42:24;;;;;;;29.80;14.50;;;;;4.10;97851.80;;;;111592;1244;42097;-79
2022/01/11 07:45:12;;;;;;;28.80;13.70;;;;;4.10;97856.00;;;;111796;1241;41209;-71
2022/01/11 07:47:41;;;;;;;29.10;14.30;;;;;4.16;97858.20;;;;111578;1241;41145;-77
2022/01/11 07:50:11;;;;;;;28.60;13.80;;;;;4.20;97865.20;;;;111560;1243;41235;-73
2022/01/11 07:52:41;;;;;;;32.80;17.70;;;;;4.20;97874.40;;;;111592;1244;41546;-79
2022/01/11 07:55:10;;;;;;;31.40;16.60;;;;;4.20;97869.00;;;;111783;1241;41150;-78
2022/01/11 07:57:39;;;;;;;31.40;16.10;;;;;4.20;97872.20;;;;111718;1242;41189;-77
2022/01/11 08:00:10;;;;;;;26.20;13.70;;;;;4.20;97875.40;;;;111499;1244;41198;-68
2022/01/11 08:02:44;;;;;;;33.00;17.30;;;;;4.20;97877.20;;;;111692;1241;41159;-63
2022/01/11 08:05:24;;;;;;;30.80;16.40;;;;;4.20;97882.60;;;;111650;1244;41460;-66
2022/01/11 08:07:59;;;;;;;34.00;16.80;;;;;4.20;97885.40;;;;111495;1244;42484;-61
2022/01/11 08:10:31;;;;;;;29.70;14.90;;;;;4.20;97887.20;;;;111359;1244;41155;-73
2022/01/11 08:13:05;;;;;;;32.40;16.80;;;;;4.20;97891.60;;;;111664;1243;41146;-70
2022/01/11 08:15:35;;;;;;;34.10;16.60;;;;;4.18;97888.20;;;;111316;1244;41598;-68
2022/01/11 08:18:08;;;;;;;38.90;19.20;;;;;4.14;97886.40;;;;111254;1244;41886;-74
2022/01/11 08:20:39;;;;;;;31.90;15.70;;;;;4.20;97892.40;;;;111440;1244;41138;-72
2022/01/11 08:23:09;;;;;;;30.60;15.10;;;;;4.20;97893.00;;;;111469;1244;41655;-69
2022/01/11 08:25:38;;;;;;;28.80;13.70;;;;;4.20;97902.20;;;;111486;1244;41254;-73
2022/01/11 08:28:09;;;;;;;27.60;14.10;;;;;4.24;97902.60;;;;111457;1244;41125;-68
2022/01/11 08:30:41;;;;;;;33.10;14.40;;;;;4.30;97900.80;;;;111426;1242;41867;-60
2022/01/11 08:33:12;;;;;;;29.80;14.80;;;;;4.30;97906.20;;;;111509;1244;41165;-70
2022/01/11 08:35:42;;;;;;;25.50;12.80;;;;;4.30;97912.00;;;;111619;1244;41943;-63
2022/01/11 08:38:13;;;;;;;28.00;13.40;;;;;4.30;97904.60;;;;111717;1243;41136;-69
2022/01/11 08:40:43;;;;;;;;;;;;;4.34;97904.40;;;;111207;1245;41812;-70
2022/01/11 08:43:14;;;;;;;24.40;11.10;;;;;4.40;97906.20;;;;111512;1244;41116;-64
2022/01/11 08:45:43;;;;;;;19.30;9.40;;;;;4.40;97902.80;;;;111776;1243;41930;-63
2022/01/11 08:48:15;;;;;;;21.30;9.70;;;;;4.50;97897.80;;;;111808;1242;41922;-69
2022/01/11 08:50:53;;;;;;;19.60;9.40;;;;;4.60;97895.60;;;;111503;1244;41158;-65
2022/01/11 08:53:26;;;;;;;22.80;11.20;;;;;4.68;97902.60;;;;111776;1241;41605;-72
2022/01/11 08:55:56;;;;;;;20.80;10.50;;;;;4.70;97901.80;;;;111745;1242;41135;-71
2022/01/11 08:58:26;;;;;;;18.90;9.20;;;;;4.78;97899.00;;;;111533;1244;41997;-70
2022/01/11 09:00:55;;;;;;;23.50;12.00;;;;;4.80;97900.20;;;;111298;1242;625333;-65
2022/01/11 09:03:26;;;;;;;30.60;13.30;;;;;4.90;97906.60;;;;111575;1243;42499;-66
2022/01/11 09:05:55;;;;;;;22.80;10.80;;;;;4.90;97909.00;;;;111401;1244;41151;-65
2022/01/11 09:08:24;;;;;;;26.40;11.80;;;;;4.96;97902.40;;;;111520;1244;41163;-68
2022/01/11 09:10:54;;;;;;;26.20;12.20;;;;;5.00;97905.80;;;;111430;1244;42139;-60
2022/01/11 09:13:25;;;;;;;21.80;11.60;;;;;5.06;97906.60;;;;111434;1243;41600;-60
2022/01/11 09:15:54;;;;;;;19.00;9.30;;;;;5.04;97906.20;;;;111702;1243;41475;-60
2022/01/11 09:18:24;;;;;;;22.40;10.20;;;;;5.02;97900.60;;;;111396;1245;41180;-68
2022/01/11 09:20:53;;;;;;;21.90;11.80;;;;;5.10;97903.40;;;;111442;1244;41820;-69
2022/01/11 09:23:23;;;;;;;22.80;10.90;;;;;5.10;97900.40;;;;111704;1244;41702;-71
2022/01/11 09:25:52;;;;;;;18.80;9.20;;;;;5.00;97904.80;;;;111650;1243;41208;-69
2022/01/11 09:28:23;;;;;;;15.20;7.50;;;;;5.00;97899.40;;;;111478;1244;41120;-73
2022/01/11 09:30:52;;;;;;;18.20;8.90;;;;;5.00;97898.60;;;;111432;1243;41158;-72
2022/01/11 09:33:21;;;;;;;18.80;8.80;;;;;5.00;97898.00;;;;111459;1244;41681;-73
2022/01/11 09:35:50;;;;;;;21.40;9.50;;;;;5.00;97901.20;;;;111748;1241;41179;-63
2022/01/11 09:38:22;;;;;;;20.40;9.40;;;;;5.02;97903.80;;;;111544;1244;41152;-65
2022/01/11 09:40:55;;;;;;;17.50;8.50;;;;;5.00;97900.40;;;;111377;1244;41666;-62
2022/01/11 09:43:27;;;;;;;31.30;11.50;;;;;5.00;97897.20;;;;111339;1243;41143;-64
2022/01/11 09:46:00;;;;;;;36.10;13.40;;;;;5.00;97904.60;;;;111719;1243;41601;-72
2022/01/11 09:48:35;;;;;;;24.40;9.50;;;;;5.10;97907.00;;;;111514;1243;42097;-64
2022/01/11 09:51:05;;;;;;;28.70;11.20;;;;;5.10;97908.80;;;;111631;1243;41595;-64
2022/01/11 09:53:34;;;;;;;25.10;10.10;;;;;5.12;97908.40;;;;111440;1241;41147;-72
2022/01/11 09:56:07;;;;;;;20.40;8.20;;;;;5.18;97907.60;;;;111533;1244;41589;-72
2022/01/11 09:58:38;;;;;;;15.80;7.40;;;;;5.30;97912.00;;;;111767;1241;41590;-61
2022/01/11 10:01:40;;;;;;;15.20;7.00;;;;;5.30;97906.80;;;;111268;1243;42472;-73
2022/01/11 10:04:12;;;;;;;30.30;11.40;;;;;5.30;97911.40;;;;111741;1241;42471;-69
2022/01/11 10:06:53;;;;;;;43.80;15.80;;;;;5.30;97908.40;;;;111709;1242;41447;-71
2022/01/11 10:09:25;;;;;;;29.80;11.90;;;;;5.30;97910.40;;;;111740;1242;41368;-75
2022/01/11 10:12:01;;;;;;;33.50;12.90;;;;;5.40;97908.80;;;;111554;1242;42183;-68
2022/01/11 10:14:35;;;;;;;20.80;9.00;;;;;5.40;97908.40;;;;111704;1241;41273;-69
2022/01/11 10:17:19;;;;;;;19.90;9.60;;;;;5.40;97912.60;;;;111646;1241;41298;-70
2022/01/11 10:20:05;;;;;;;19.50;8.50;;;;;5.40;97909.80;;;;111671;1242;41257;-62
2022/01/11 10:22:48;;;;;;;15.40;6.90;;;;;5.38;97907.20;;;;111545;1242;42164;-71
2022/01/11 10:25:18;;;;;;;14.20;6.90;;;;;5.30;97911.00;;;;111778;1243;41127;-73
2022/01/11 10:27:53;;;;;;;14.10;5.90;;;;;5.30;97918.60;;;;111635;1244;41590;-74
2022/01/11 10:30:25;;;;;;;12.20;5.20;;;;;5.30;97917.40;;;;111662;1241;41586;-72
2022/01/11 10:33:04;;;;;;;14.10;5.90;;;;;5.38;97916.40;;;;111807;1241;41343;-64
2022/01/11 10:35:42;;;;;;;14.30;6.50;;;;;5.40;97916.00;;;;111698;1242;41252;-68
2022/01/11 10:38:30;;;;;;;12.10;5.10;;;;;5.32;97916.20;;;;111526;1244;41646;-59
2022/01/11 10:41:02;;;;;;;11.60;4.80;;;;;5.40;97917.60;;;;111729;1243;41293;-63
2022/01/11 10:43:41;;;;;;;12.20;5.20;;;;;5.50;97917.60;;;;111591;1244;41821;-64
2022/01/11 10:46:13;;;;;;;;;;;;;5.52;97918.40;;;;111802;1241;41604;-66
2022/01/11 10:48:44;;;;;;;13.10;5.70;;;;;5.60;97919.20;;;;111785;1241;41127;-65
2022/01/11 10:51:15;;;;;;;13.40;6.20;;;;;5.60;97917.00;;;;111535;1244;41139;-62
2022/01/11 10:53:49;;;;;;;13.40;5.90;;;;;5.70;97920.60;;;;111503;1244;41259;-59
2022/01/11 10:56:38;;;;;;;12.20;5.60;;;;;5.70;97920.00;;;;111795;1241;41619;-62
2022/01/11 10:59:09;;;;;;;11.20;4.60;;;;;5.80;97917.60;;;;111575;1243;41571;-67
2022/01/11 11:01:43;;;;;;;11.90;5.20;;;;;5.90;97917.00;;;;111762;1241;41257;-60
2022/01/11 11:04:32;;;;;;;12.00;5.00;;;;;6.00;97916.00;;;;111416;1244;41657;-67
2022/01/11 11:07:11;;;;;;;11.90;4.80;;;;;6.20;97911.40;;;;111536;1242;41715;-60
2022/01/11 11:09:49;;;;;;;11.00;4.50;;;;;6.32;97909.60;;;;111745;1244;41139;-61
2022/01/11 11:12:21;;;;;;;10.70;4.60;;;;;6.50;97913.40;;;;111456;1244;41366;-63
2022/01/11 11:15:02;;;;;;;15.40;5.20;;;;;6.68;97903.60;;;;111821;1241;41500;-70
2022/01/11 11:17:37;;;;;;;11.90;5.00;;;;;6.80;97909.80;;;;111797;1241;41144;-70
2022/01/11 11:20:24;;;;;;;11.10;5.10;;;;;6.98;97909.60;;;;111774;1241;41610;-62
2022/01/11 11:22:53;;;;;;;10.10;4.50;;;;;7.02;97905.80;;;;111830;1241;41249;-70
2022/01/11 11:25:22;;;;;;;10.70;4.80;;;;;7.18;97905.40;;;;111558;1244;41234;-65
2022/01/11 11:27:51;;;;;;;12.70;5.70;;;;;7.24;97905.60;;;;111795;1241;42145;-63
2022/01/11 11:30:20;;;;;;;11.50;5.20;;;;;7.20;97901.40;;;;111586;1244;41135;-68
2022/01/11 11:32:51;;;;;;;12.60;5.70;;;;;7.10;97908.20;;;;111781;1241;41538;-63
2022/01/11 11:35:21;;;;;;;11.30;4.90;;;;;7.20;97907.20;;;;111807;1243;41147;-70
2022/01/11 11:38:04;;;;;;;13.00;5.90;;;;;7.20;97908.80;;;;111845;1241;41124;-68
2022/01/11 11:40:34;;;;;;;11.70;5.20;;;;;7.30;97914.60;;;;111787;1241;41952;-69
2022/01/11 11:43:04;;;;;;;12.60;4.90;;;;;7.24;97911.20;;;;111736;1243;41159;-63
2022/01/11 11:45:36;;;;;;;11.40;4.80;;;;;7.26;97909.60;;;;111756;1241;41488;-61
2022/01/11 11:48:07;;;;;;;11.70;4.70;;;;;7.30;97910.80;;;;111793;1241;41133;-70
2022/01/11 11:51:00;;;;;;;11.90;4.30;;;;;7.36;97910.00;;;;111787;1243;41124;-60
2022/01/11 11:53:35;;;;;;;13.00;5.70;;;;;7.50;97913.00;;;;111768;1242;41137;-70
2022/01/11 11:56:14;;;;;;;12.40;5.50;;;;;7.38;97911.00;;;;111757;1243;41925;-64
2022/01/11 11:58:47;;;;;;;11.70;5.10;;;;;7.20;97908.80;;;;111760;1243;41421;-69
2022/01/11 12:01:41;;;;;;;11.00;4.70;;;;;7.20;97908.40;;;;111742;1241;42280;-60
2022/01/11 12:04:31;;;;;;;12.30;4.60;;;;;7.30;97908.20;;;;111727;1241;41159;-66
2022/01/11 12:07:44;;;;;;;12.10;4.80;;;;;7.30;97913.00;;;;111712;1242;41250;-68
2022/01/11 12:10:26;;;;;;;11.20;4.90;;;;;7.20;97910.20;;;;111477;1243;41265;-64
2022/01/11 12:12:55;;;;;;;12.20;5.40;;;;;7.20;97907.80;;;;111749;1241;41118;-73
2022/01/11 12:15:35;;;;;;;11.50;5.00;;;;;7.22;97910.00;;;;111471;1244;41243;-66
2022/01/11 12:18:04;;;;;;;11.80;5.00;;;;;7.20;97915.00;;;;111740;1243;41141;-67
2022/01/11 12:20:47;;;;;;;11.50;4.80;;;;;7.20;97915.20;;;;111740;1244;41822;-74
2022/01/11 12:23:38;;;;;;;11.40;5.40;;;;;7.10;97925.20;;;;111741;1242;41199;-75
2022/01/11 12:26:19;;;;;;;12.40;4.90;;;;;7.10;97932.60;;;;111340;1244;43907;-75
2022/01/11 12:29:04;;;;;;;12.10;5.10;;;;;7.00;97928.80;;;;111775;1241;41166;-73
2022/01/11 12:31:40;;;;;;;13.70;5.60;;;;;6.90;97938.60;;;;111660;1242;41126;-76
2022/01/11 12:34:12;;;;;;;11.80;5.10;;;;;6.90;97940.60;;;;111498;1244;41121;-71